Tisul, Russia
Current Conditions -  °F | °C
As of 11:30 PM on Thursday 30 Oct 2014 (Local Time) from UNEE Reporting Station
Snow Showers Snow Showers  
Wind Chill: -8°   Ceiling: 1100
Heat Index: -1°   Visibility: 4mi
Dew Point: -1°   Wind: 18mph
Humidity: 100%   Direction: 220°SW
Pressure: 30.06"   Gusts: NA
Location:  55.76°N, 88.31°E
Report Text: UNEE 301630Z 22008MPS 7000 -SHSN OVC011CB M01/M01 Q1018 NOSIGRMK QFE741 23451036
Loading
Personal Weather Stations






























Interactive Weather Map
Tropical Storm Tracking
New forecast layout! Learn more

10-Day Weather Forecast

Advertisements
Track Severe Weather on mobile